Time;durP1;ratioP1;P1;durP2;ratioP2;P2;SDS_P1;SDS_P2;PMS_P1;PMS_P2;Temp;Humidity;BMP_temperature;BMP_pressure;BME280_temperature;BME280_humidity;BME280_pressure;Samples;Min_cycle;Max_cycle;Signal;HPM_P1;HPM_P2
2022/08/11 00:02:35;;;;;;;3.60;2.83;;;16.20;68.60;;;;;;5012743;28;20511;-66
2022/08/11 00:05:06;;;;;;;4.33;2.57;;;16.10;69.10;;;;;;5014350;28;20529;-65
2022/08/11 00:07:34;;;;;;;4.03;2.83;;;16.10;69.10;;;;;;5012674;28;20545;-65
2022/08/11 00:10:02;;;;;;;4.00;3.07;;;16.00;69.40;;;;;;5014389;28;20482;-65
2022/08/11 00:12:29;;;;;;;4.50;2.90;;;15.90;70.00;;;;;;5012993;28;20519;-65
2022/08/11 00:14:58;;;;;;;4.07;3.20;;;15.90;70.00;;;;;;5013590;28;20525;-65
2022/08/11 00:17:29;;;;;;;4.10;3.50;;;15.90;70.30;;;;;;5013333;28;20871;-65
2022/08/11 00:20:05;;;;;;;4.00;2.97;;;15.90;70.50;;;;;;5014194;28;20505;-66
2022/08/11 00:22:33;;;;;;;5.13;3.00;;;15.90;70.50;;;;;;5012874;28;20534;-65
2022/08/11 00:25:09;;;;;;;9.73;2.70;;;15.80;70.40;;;;;;5012817;28;20497;-65
2022/08/11 00:27:37;;;;;;;4.93;3.77;;;15.80;70.30;;;;;;5013960;28;20804;-65
2022/08/11 00:30:05;;;;;;;3.50;2.70;;;15.80;70.90;;;;;;5013133;28;20526;-65
2022/08/11 00:32:33;;;;;;;4.37;2.77;;;15.80;70.80;;;;;;5014200;28;20442;-65
2022/08/11 00:35:03;;;;;;;3.43;2.83;;;15.70;70.60;;;;;;5013077;28;20449;-65
2022/08/11 00:37:31;;;;;;;3.50;2.60;;;15.70;70.90;;;;;;5013947;28;20536;-65
2022/08/11 00:39:59;;;;;;;4.23;3.00;;;15.70;70.70;;;;;;5013674;28;20534;-69
2022/08/11 00:42:43;;;;;;;5.33;2.80;;;15.70;71.30;;;;;;5013493;28;20439;-65
2022/08/11 00:45:22;;;;;;;7.67;2.90;;;15.70;71.50;;;;;;5012504;28;21006;-68
2022/08/11 00:48:00;;;;;;;4.60;2.80;;;15.70;71.30;;;;;;5013783;28;20561;-65
2022/08/11 00:50:39;;;;;;;3.53;2.60;;;15.60;71.30;;;;;;5012910;28;20438;-65
2022/08/11 00:53:24;;;;;;;3.77;2.73;;;15.60;71.50;;;;;;5013656;28;20835;-65
2022/08/11 00:56:22;;;;;;;3.80;2.60;;;15.50;71.80;;;;;;5011076;28;20553;-66
2022/08/11 00:59:38;;;;;;;5.53;3.13;;;15.50;71.90;;;;;;5013141;28;20816;-65
2022/08/11 01:02:17;;;;;;;5.40;3.50;;;15.40;72.80;;;;;;4990509;28;20492;-65
2022/08/11 01:05:20;;;;;;;5.17;3.57;;;15.30;73.20;;;;;;4993752;28;20538;-65
2022/08/11 01:08:10;;;;;;;4.90;3.20;;;15.30;73.50;;;;;;5012230;28;20474;-65
2022/08/11 01:11:24;;;;;;;3.60;2.97;;;15.20;73.80;;;;;;5012484;28;20534;-65
2022/08/11 01:14:30;;;;;;;5.53;3.13;;;15.20;73.80;;;;;;5013453;28;20451;-65
2022/08/11 01:17:34;;;;;;;6.27;3.23;;;15.20;74.30;;;;;;4991165;28;20553;-65
2022/08/11 01:20:14;;;;;;;3.77;2.90;;;15.10;74.50;;;;;;4993948;28;20432;-66
2022/08/11 01:23:20;;;;;;;3.60;2.90;;;15.00;75.00;;;;;;5013375;28;20444;-65
2022/08/11 01:26:14;;;;;;;3.80;2.80;;;15.00;75.30;;;;;;5011747;28;20478;-65
2022/08/11 01:29:16;;;;;;;3.87;3.20;;;15.00;75.10;;;;;;5012604;28;20869;-70
2022/08/11 01:32:23;;;;;;;6.43;3.50;;;15.00;75.20;;;;;;5001285;28;20521;-65
2022/08/11 01:35:22;;;;;;;3.77;3.13;;;15.00;74.90;;;;;;5011217;28;20944;-66
2022/08/11 01:38:22;;;;;;;3.40;2.60;;;15.00;75.20;;;;;;4992212;28;20560;-66
2022/08/11 01:41:10;;;;;;;12.10;3.13;;;14.90;75.60;;;;;;5011283;28;20466;-65
2022/08/11 01:47:02;;;;;;;4.70;3.13;;;14.90;76.00;;;;;;4993177;28;20816;-66
2022/08/11 01:49:37;;;;;;;5.40;3.20;;;14.90;75.90;;;;;;4996619;28;20466;-65
2022/08/11 01:52:19;;;;;;;5.33;3.53;;;14.90;75.90;;;;;;5012442;28;20429;-65
2022/08/11 01:54:57;;;;;;;3.47;3.17;;;14.80;76.20;;;;;;5011590;28;20482;-65
2022/08/11 01:57:37;;;;;;;5.07;2.80;;;14.80;75.80;;;;;;5011921;28;20573;-66
2022/08/11 02:00:10;;;;;;;3.47;2.90;;;14.70;75.90;;;;;;5011748;28;20521;-65
2022/08/11 02:02:52;;;;;;;3.77;3.07;;;14.70;76.20;;;;;;5012920;28;20442;-65
2022/08/11 02:05:59;;;;;;;4.83;4.10;;;14.70;76.60;;;;;;5011504;28;20442;-67
2022/08/11 02:08:40;;;;;;;6.27;4.10;;;14.80;76.60;;;;;;5011499;28;20484;-66
2022/08/11 02:11:30;;;;;;;4.90;3.90;;;14.80;76.70;;;;;;5012776;28;20824;-65
2022/08/11 02:14:05;;;;;;;5.03;3.60;;;14.70;76.90;;;;;;5011581;28;20546;-66
2022/08/11 02:16:47;;;;;;;6.70;3.63;;;14.70;76.80;;;;;;5012197;28;20490;-65
2022/08/11 02:25:06;;;;;;;5.73;3.30;;;14.60;77.00;;;;;;5012404;28;20454;-66
2022/08/11 02:27:41;;;;;;;3.63;2.70;;;14.60;77.30;;;;;;5010983;28;20447;-65
2022/08/11 02:30:12;;;;;;;5.17;4.17;;;14.60;77.40;;;;;;5008690;28;20440;-67
2022/08/11 02:35:46;;;;;;;4.80;3.33;;;14.70;77.50;;;;;;5010236;28;20430;-65
2022/08/11 02:38:25;;;;;;;4.57;4.00;;;14.70;77.40;;;;;;5014522;28;20486;-65
2022/08/11 02:41:01;;;;;;;5.67;3.83;;;14.60;77.60;;;;;;5013744;28;20512;-65
2022/08/11 02:43:41;;;;;;;5.87;4.37;;;14.50;77.70;;;;;;5016217;28;20492;-66
2022/08/11 02:46:21;;;;;;;5.23;3.60;;;14.40;78.40;;;;;;5014026;28;20837;-65
2022/08/11 02:52:09;;;;;;;4.73;3.13;;;14.40;78.30;;;;;;4972559;28;20516;-66
2022/08/11 02:54:43;;;;;;;5.13;3.33;;;14.40;78.00;;;;;;4974345;28;20491;-66
2022/08/11 02:57:18;;;;;;;3.90;3.50;;;14.40;77.90;;;;;;4996325;28;20482;-65
2022/08/11 02:59:53;;;;;;;8.97;4.23;;;14.40;78.50;;;;;;5015832;28;20438;-65
2022/08/11 03:02:39;;;;;;;4.43;3.57;;;14.30;78.90;;;;;;5013148;28;20434;-66
2022/08/11 03:05:19;;;;;;;4.90;3.20;;;14.30;79.20;;;;;;5011569;28;20524;-65
2022/08/11 03:08:02;;;;;;;6.13;4.00;;;14.20;78.90;;;;;;5013496;28;20444;-65
2022/08/11 03:10:36;;;;;;;5.93;3.43;;;14.20;79.20;;;;;;5015345;28;20443;-70
2022/08/11 03:19:13;;;;;;;7.53;3.97;;;14.10;79.50;;;;;;5015094;28;20428;-66
2022/08/11 03:21:51;;;;;;;7.57;4.43;;;14.00;79.30;;;;;;5012499;28;20438;-65
2022/08/11 03:24:25;;;;;;;7.63;4.30;;;14.00;79.40;;;;;;5014164;28;20477;-64
2022/08/11 03:27:03;;;;;;;6.63;3.90;;;14.00;79.20;;;;;;5015400;28;20434;-65
2022/08/11 03:29:35;;;;;;;4.33;3.63;;;14.00;79.20;;;;;;5014357;28;20466;-65
2022/08/11 03:32:10;;;;;;;6.50;4.43;;;13.90;79.60;;;;;;5014741;28;20504;-69
2022/08/11 03:34:40;;;;;;;5.20;3.53;;;13.80;79.80;;;;;;4995685;28;20522;-65
2022/08/11 03:40:16;;;;;;;5.90;3.60;;;13.80;79.70;;;;;;4990976;28;20432;-65
2022/08/11 03:42:49;;;;;;;5.80;3.43;;;13.80;80.10;;;;;;4999189;28;20442;-65
2022/08/11 03:45:25;;;;;;;4.57;3.60;;;13.70;80.30;;;;;;5015322;28;20435;-65
2022/08/11 03:48:16;;;;;;;4.53;4.00;;;13.60;81.30;;;;;;5013808;28;20466;-64
2022/08/11 03:51:03;;;;;;;3.20;2.53;;;13.60;81.40;;;;;;5014090;28;20975;-65
2022/08/11 03:53:55;;;;;;;6.10;3.93;;;13.60;81.30;;;;;;5013287;28;20443;-65
2022/08/11 03:56:55;;;;;;;4.10;3.10;;;13.50;81.50;;;;;;5015023;28;20482;-65
2022/08/11 04:00:07;;;;;;;4.00;3.57;;;13.60;81.90;;;;;;5012284;28;20533;-65
2022/08/11 04:03:12;;;;;;;6.10;3.57;;;13.60;81.60;;;;;;5014354;28;20430;-64
2022/08/11 04:06:24;;;;;;;3.83;3.30;;;13.70;81.80;;;;;;5008302;28;20455;-65
2022/08/11 04:09:27;;;;;;;5.00;3.37;;;13.70;82.50;;;;;;5005853;28;20442;-66
2022/08/11 04:12:27;;;;;;;5.20;3.30;;;13.70;81.40;;;;;;5014985;28;20815;-65
2022/08/11 04:16:00;;;;;;;3.87;3.20;;;13.60;81.60;;;;;;5013931;28;20435;-64
2022/08/11 04:19:11;;;;;;;6.93;2.97;;;13.60;81.70;;;;;;4991695;28;20554;-66
2022/08/11 04:22:00;;;;;;;5.15;3.33;;;13.60;82.20;;;;;;4991356;28;20452;-65
2022/08/11 04:24:57;;;;;;;7.43;5.20;;;13.70;82.20;;;;;;5011939;28;20223;-66
2022/08/11 04:27:48;;;;;;;7.13;4.20;;;13.60;81.70;;;;;;5014693;28;20435;-65
2022/08/11 04:30:21;;;;;;;6.40;4.80;;;13.50;82.30;;;;;;5007554;28;20466;-64
2022/08/11 04:33:30;;;;;;;7.63;4.07;;;13.50;82.40;;;;;;5013686;28;20439;-65
2022/08/11 04:36:09;;;;;;;6.77;4.10;;;13.40;83.00;;;;;;4994488;28;20895;-65
2022/08/11 04:38:59;;;;;;;6.47;4.83;;;13.30;83.60;;;;;;5014388;28;20573;-65
2022/08/11 04:45:15;;;;;;;6.60;4.57;;;13.40;84.10;;;;;;5014593;28;20608;-66
2022/08/11 05:03:43;;;;;;;5.40;4.37;;;13.60;84.10;;;;;;5002086;28;20943;-66
2022/08/11 05:07:04;;;;;;;4.40;3.60;;;13.50;84.80;;;;;;5006760;28;20439;-64
2022/08/11 05:10:09;;;;;;;5.43;4.33;;;13.50;85.40;;;;;;4947952;28;20517;-65
2022/08/11 05:12:42;;;;;;;6.27;4.10;;;13.50;85.80;;;;;;5010911;28;20438;-64
2022/08/11 05:35:09;;;;;;;7.57;5.63;;;14.30;88.60;;;;;;5000475;28;20544;-71
2022/08/11 05:57:17;;;;;;;6.30;4.77;;;15.30;87.90;;;;;;4949314;29;20512;-65
2022/08/11 05:59:47;;;;;;;6.10;5.43;;;15.30;87.00;;;;;;4963464;28;20803;-65
2022/08/11 06:02:15;;;;;;;6.60;5.77;;;15.50;86.00;;;;;;5011357;28;20439;-71
2022/08/11 06:04:43;;;;;;;6.00;5.20;;;15.60;86.50;;;;;;5011228;28;20508;-66
2022/08/11 06:07:16;;;;;;;6.10;4.83;;;15.70;86.50;;;;;;5007477;28;20534;-65
2022/08/11 06:09:49;;;;;;;5.50;4.63;;;15.80;86.30;;;;;;5010237;28;20924;-65
2022/08/11 06:12:22;;;;;;;5.60;5.10;;;16.00;86.40;;;;;;5009562;28;20454;-65
2022/08/11 06:14:54;;;;;;;5.10;4.17;;;16.20;85.20;;;;;;5009367;28;20530;-65
2022/08/11 06:17:23;;;;;;;6.93;4.70;;;16.30;85.00;;;;;;5010389;28;20485;-65
2022/08/11 06:19:56;;;;;;;5.37;4.67;;;16.50;85.60;;;;;;5002293;28;20777;-66
2022/08/11 06:22:23;;;;;;;7.87;5.07;;;16.60;85.60;;;;;;5006058;28;20980;-66
2022/08/11 06:24:56;;;;;;;6.73;4.83;;;16.70;85.50;;;;;;5010436;28;20475;-66
2022/08/11 06:27:25;;;;;;;5.87;4.70;;;16.80;85.50;;;;;;5003485;28;20496;-65
2022/08/11 06:29:55;;;;;;;5.83;4.33;;;17.00;85.40;;;;;;5007161;28;20451;-71
2022/08/11 06:32:25;;;;;;;4.90;4.40;;;17.20;85.40;;;;;;5009528;28;20863;-66
2022/08/11 06:35:03;;;;;;;5.97;5.20;;;17.30;85.30;;;;;;5006377;28;20840;-67
2022/08/11 06:37:42;;;;;;;5.70;4.50;;;17.50;82.80;;;;;;5003627;28;20478;-65
2022/08/11 06:40:13;;;;;;;5.40;4.27;;;17.60;82.90;;;;;;5003860;28;20533;-65
2022/08/11 06:42:51;;;;;;;12.30;5.03;;;17.70;83.30;;;;;;5005826;28;20796;-66
2022/08/11 06:45:32;;;;;;;4.60;3.90;;;17.90;81.50;;;;;;5012670;28;20493;-66
2022/08/11 06:48:01;;;;;;;5.90;4.03;;;17.90;81.20;;;;;;5017017;28;20875;-68
2022/08/11 06:53:23;;;;;;;5.67;3.97;;;18.20;80.10;;;;;;4989525;28;20826;-65
2022/08/11 07:01:36;;;;;;;6.37;4.20;;;18.60;79.30;;;;;;5009820;28;21573;-65
2022/08/11 07:04:08;;;;;;;6.47;4.33;;;18.70;78.70;;;;;;5010468;28;20500;-65
2022/08/11 07:15:50;;;;;;;5.93;4.40;;;19.40;77.90;;;;;;5019301;28;20481;-65
2022/08/11 07:29:37;;;;;;;4.67;4.00;;;20.00;75.40;;;;;;5026154;28;20476;-65
2022/08/11 07:32:14;;;;;;;6.33;4.30;;;20.20;74.90;;;;;;5022180;28;20526;-65
2022/08/11 07:34:48;;;;;;;8.07;4.20;;;20.40;74.90;;;;;;5022227;28;20442;-65
2022/08/11 07:37:18;;;;;;;5.37;3.80;;;20.50;72.60;;;;;;5024147;28;20475;-66
2022/08/11 07:39:47;;;;;;;5.20;3.73;;;20.40;70.40;;;;;;5022814;28;20539;-65
2022/08/11 07:42:16;;;;;;;5.40;4.10;;;20.50;72.20;;;;;;5025015;28;20534;-66
2022/08/11 07:53:19;;;;;;;6.30;4.50;;;21.40;74.30;;;;;;4962615;28;20475;-67
2022/08/11 07:55:48;;;;;;;7.13;3.93;;;21.50;71.80;;;;;;4963102;28;20810;-66
2022/08/11 08:17:56;;;;;;;7.47;3.80;;;22.80;68.00;;;;;;4964027;28;20560;-66
2022/08/11 08:20:26;;;;;;;6.70;3.70;;;23.00;65.10;;;;;;5023126;28;20442;-66
2022/08/11 08:22:56;;;;;;;5.80;3.03;;;23.10;66.70;;;;;;5023761;28;20541;-66
2022/08/11 08:25:24;;;;;;;5.37;2.90;;;23.20;65.60;;;;;;5020728;28;20435;-66
2022/08/11 08:27:52;;;;;;;4.17;3.50;;;23.30;64.10;;;;;;5018549;28;20453;-66
2022/08/11 08:33:05;;;;;;;3.83;2.87;;;23.70;64.00;;;;;;5021431;28;20798;-66
2022/08/11 08:35:32;;;;;;;4.80;3.50;;;23.80;61.70;;;;;;5021375;28;20529;-66
2022/08/11 08:38:01;;;;;;;5.80;3.37;;;23.90;63.20;;;;;;5019191;28;20565;-66
2022/08/11 08:40:28;;;;;;;5.10;3.10;;;24.10;63.10;;;;;;5022103;28;20540;-66
2022/08/11 08:42:58;;;;;;;4.70;3.27;;;24.20;59.40;;;;;;5022539;28;20895;-66
2022/08/11 08:45:26;;;;;;;5.00;3.60;;;24.30;59.90;;;;;;5021865;28;20521;-66
2022/08/11 08:48:00;;;;;;;4.67;3.10;;;24.50;60.20;;;;;;5020607;28;20567;-66
2022/08/11 08:53:15;;;;;;;4.20;3.20;;;24.80;60.50;;;;;;5020233;28;20442;-66
2022/08/11 08:55:45;;;;;;;11.77;3.50;;;24.90;57.30;;;;;;5019331;28;20526;-66
2022/08/11 08:58:13;;;;;;;4.90;2.90;;;25.00;58.90;;;;;;5024231;28;20564;-65
2022/08/11 09:00:44;;;;;;;3.67;2.77;;;25.10;57.60;;;;;;5021060;28;20529;-65
2022/08/11 09:03:12;;;;;;;4.63;3.10;;;25.30;58.30;;;;;;5021320;28;21008;-65
2022/08/11 09:05:39;;;;;;;4.63;3.20;;;25.40;58.30;;;;;;5024080;28;20557;-66
2022/08/11 09:08:07;;;;;;;4.70;3.27;;;25.60;56.80;;;;;;5021367;28;20542;-65
2022/08/11 09:10:35;;;;;;;3.10;2.80;;;25.70;58.00;;;;;;5023751;28;21199;-66
2022/08/11 09:13:04;;;;;;;3.90;3.27;;;25.90;56.50;;;;;;5022252;28;20468;-65
2022/08/11 09:15:32;;;;;;;6.50;3.50;;;25.90;56.20;;;;;;5022454;28;20870;-66
2022/08/11 09:18:04;;;;;;;3.97;2.93;;;26.00;54.90;;;;;;5022511;28;20515;-66
2022/08/11 09:20:34;;;;;;;7.80;3.60;;;26.00;55.80;;;;;;5023144;28;20453;-66
2022/08/11 09:28:37;;;;;;;7.17;2.97;;;26.50;57.00;;;;;;5021688;28;20528;-66
2022/08/11 09:31:06;;;;;;;3.90;2.93;;;26.80;57.00;;;;;;5023285;28;20478;-66
2022/08/11 09:33:35;;;;;;;6.10;3.17;;;26.90;55.50;;;;;;5021725;28;20861;-66
2022/08/11 09:40:27;;;;;;;5.27;3.23;;;27.00;54.30;;;;;;5019999;28;20443;-66
2022/08/11 09:41:40;;;;;;;6.90;3.67;;;27.00;53.30;;;;;;5021430;28;20571;-66
2022/08/11 09:46:58;;;;;;;6.47;3.30;;;27.20;53.60;;;;;;5013867;28;20465;-66
2022/08/11 09:49:26;;;;;;;5.13;3.47;;;27.20;54.00;;;;;;5022798;28;20835;-65
2022/08/11 09:51:54;;;;;;;5.97;3.67;;;27.40;53.50;;;;;;5021291;28;20458;-66
2022/08/11 09:54:24;;;;;;;3.80;3.13;;;27.50;53.20;;;;;;5023483;28;20442;-65
2022/08/11 09:59:40;;;;;;;9.60;3.60;;;27.80;52.20;;;;;;5023261;28;20496;-65
2022/08/11 10:02:09;;;;;;;4.30;2.93;;;27.90;52.10;;;;;;5021297;28;20434;-65
2022/08/11 10:04:41;;;;;;;4.93;3.47;;;28.00;53.30;;;;;;5022816;28;20533;-66
2022/08/11 10:07:09;;;;;;;4.00;3.20;;;28.00;51.00;;;;;;5020851;28;20514;-66
2022/08/11 10:09:40;;;;;;;3.80;3.00;;;28.10;52.20;;;;;;5021356;28;20449;-65
2022/08/11 10:12:12;;;;;;;7.20;3.20;;;28.20;53.20;;;;;;5022793;28;20537;-66
2022/08/11 10:17:31;;;;;;;6.43;3.33;;;28.40;51.90;;;;;;5019044;28;20920;-66
2022/08/11 10:20:02;;;;;;;6.90;3.47;;;28.60;50.90;;;;;;5021440;28;20517;-66
2022/08/11 10:28:04;;;;;;;4.43;3.40;;;28.90;50.50;;;;;;5016301;28;20413;-66
2022/08/11 10:36:04;;;;;;;5.17;3.03;;;29.00;49.50;;;;;;5018361;28;20561;-66
2022/08/11 10:38:32;;;;;;;6.43;3.07;;;29.10;50.00;;;;;;5015884;28;20485;-66
2022/08/11 10:43:46;;;;;;;4.20;2.97;;;29.30;49.70;;;;;;5020993;28;20492;-66
2022/08/11 10:48:59;;;;;;;5.30;2.93;;;29.50;48.90;;;;;;5020646;28;20508;-66
2022/08/11 10:59:46;;;;;;;4.30;2.83;;;29.60;48.20;;;;;;5024364;28;20536;-66
2022/08/11 11:02:14;;;;;;;3.73;2.80;;;29.70;48.20;;;;;;5024524;28;20995;-66
2022/08/11 11:05:12;;;;;;;4.73;2.97;;;29.80;47.80;;;;;;5025551;28;20458;-66
2022/08/11 11:07:50;;;;;;;4.50;3.03;;;29.80;46.70;;;;;;5021623;28;20501;-66
2022/08/11 11:10:17;;;;;;;4.87;2.90;;;29.90;45.70;;;;;;5019829;28;20446;-66
2022/08/11 11:18:36;;;;;;;5.53;2.77;;;30.00;47.90;;;;;;4953979;28;20588;-66
2022/08/11 11:21:07;;;;;;;5.13;3.33;;;29.90;46.40;;;;;;4955513;28;20449;-69
2022/08/11 11:23:39;;;;;;;4.10;3.10;;;29.90;45.50;;;;;;4981477;28;20730;-67
2022/08/11 11:26:37;;;;;;;4.33;3.23;;;29.90;45.70;;;;;;5018300;28;20490;-66
2022/08/11 11:29:35;;;;;;;4.67;2.80;;;29.90;45.30;;;;;;5013408;28;20443;-66
2022/08/11 11:32:34;;;;;;;4.30;2.83;;;29.90;44.10;;;;;;5016350;28;20437;-72
2022/08/11 11:35:28;;;;;;;4.77;2.33;;;29.80;46.00;;;;;;5019493;28;20530;-68
2022/08/11 11:37:56;;;;;;;3.80;3.30;;;29.90;45.00;;;;;;5013173;28;20920;-68
2022/08/11 11:40:24;;;;;;;3.40;2.80;;;29.90;44.60;;;;;;5010403;28;20548;-66
2022/08/11 11:42:54;;;;;;;8.13;2.60;;;29.80;44.50;;;;;;5014809;28;20513;-67
2022/08/11 11:45:24;;;;;;;5.00;3.30;;;29.90;45.70;;;;;;5014964;28;21005;-66
2022/08/11 11:47:58;;;;;;;3.30;2.33;;;29.90;42.60;;;;;;5015769;28;21091;-66
2022/08/11 11:50:28;;;;;;;4.00;2.93;;;29.90;43.20;;;;;;5015399;28;20917;-66
2022/08/11 11:52:56;;;;;;;6.30;3.00;;;29.90;43.80;;;;;;5015497;28;20435;-67
2022/08/11 11:55:25;;;;;;;3.77;3.10;;;29.80;43.10;;;;;;5015237;28;20522;-67
2022/08/11 12:03:27;;;;;;;4.50;3.00;;;29.70;43.60;;;;;;5015878;28;20422;-66
2022/08/11 12:05:54;;;;;;;5.07;3.30;;;29.90;43.90;;;;;;5015399;28;20527;-66
2022/08/11 12:08:24;;;;;;;7.10;3.17;;;30.00;44.30;;;;;;5015199;28;20462;-66
2022/08/11 12:13:39;;;;;;;6.47;2.70;;;30.10;44.50;;;;;;5014128;28;20522;-67
2022/08/11 12:13:41;;;;;;;6.20;2.80;;;30.20;42.40;;;;;;5015269;28;20450;-66
2022/08/11 12:16:10;;;;;;;5.20;2.93;;;30.20;42.50;;;;;;5015266;28;20439;-66
2022/08/11 12:18:40;;;;;;;5.20;3.07;;;30.10;43.20;;;;;;5014975;28;20577;-66
2022/08/11 12:21:09;;;;;;;4.80;2.60;;;30.10;43.40;;;;;;5015261;28;20527;-66
2022/08/11 12:29:11;;;;;;;6.10;3.10;;;30.20;42.90;;;;;;5014870;28;20476;-66
2022/08/11 12:31:40;;;;;;;3.40;2.53;;;30.30;42.00;;;;;;5014919;28;20526;-66
2022/08/11 12:34:12;;;;;;;5.80;2.73;;;30.30;43.10;;;;;;5014944;28;20466;-66
2022/08/11 12:36:40;;;;;;;3.90;2.90;;;30.30;42.10;;;;;;5014529;28;20477;-67
2022/08/11 12:39:18;;;;;;;3.27;2.77;;;30.20;41.30;;;;;;5014386;28;20569;-66
2022/08/11 12:47:19;;;;;;;5.07;2.80;;;30.40;41.20;;;;;;5014360;28;20470;-66
2022/08/11 12:52:44;;;;;;;4.20;2.70;;;30.50;42.20;;;;;;4983725;28;20510;-66
2022/08/11 12:58:14;;;;;;;4.43;2.73;;;30.50;41.90;;;;;;5014688;28;20441;-66
2022/08/11 12:58:16;;;;;;;4.13;3.03;;;30.50;40.10;;;;;;5014422;28;20431;-66
2022/08/11 13:06:14;;;;;;;7.33;3.00;;;30.20;41.80;;;;;;5014482;28;20426;-66
2022/08/11 13:08:43;;;;;;;4.67;2.60;;;30.30;43.00;;;;;;5014087;28;20518;-66
2022/08/11 13:13:56;;;;;;;3.87;2.47;;;30.40;41.50;;;;;;5013996;28;20589;-66
2022/08/11 13:16:23;;;;;;;3.97;2.77;;;30.40;42.20;;;;;;5014176;28;20837;-66
2022/08/11 13:18:52;;;;;;;4.37;2.60;;;30.50;40.70;;;;;;5013694;28;20510;-67
2022/08/11 13:21:22;;;;;;;5.13;2.70;;;30.40;40.20;;;;;;5014207;28;20519;-66
2022/08/11 13:23:52;;;;;;;4.90;3.20;;;30.30;40.50;;;;;;5013922;28;20435;-66
2022/08/11 13:26:19;;;;;;;4.77;2.70;;;30.30;41.50;;;;;;5013991;28;20488;-69
2022/08/11 13:28:46;;;;;;;3.70;2.80;;;30.30;41.80;;;;;;5013881;28;20474;-66
2022/08/11 13:31:14;;;;;;;4.10;2.80;;;30.30;42.00;;;;;;5013514;28;20518;-66
2022/08/11 13:33:44;;;;;;;4.33;3.00;;;30.40;42.40;;;;;;5013570;28;20435;-66
2022/08/11 13:36:13;;;;;;;5.33;2.90;;;30.40;41.30;;;;;;5013478;28;20438;-66
2022/08/11 13:38:43;;;;;;;5.50;2.73;;;30.40;41.70;;;;;;5013623;28;20443;-66
2022/08/11 13:43:56;;;;;;;5.00;2.57;;;30.50;41.20;;;;;;5013306;28;20980;-66
2022/08/11 13:46:35;;;;;;;5.23;2.87;;;30.60;40.80;;;;;;5013459;28;20855;-66
2022/08/11 13:49:03;;;;;;;3.57;2.73;;;30.60;40.30;;;;;;5013564;28;20526;-67
2022/08/11 13:51:32;;;;;;;8.37;2.40;;;30.70;41.00;;;;;;5013407;28;20843;-66
2022/08/11 13:54:03;;;;;;;3.27;2.63;;;30.70;40.20;;;;;;5013522;28;20434;-66
2022/08/11 13:56:32;;;;;;;5.33;3.13;;;30.70;40.90;;;;;;5013532;28;20462;-70
2022/08/11 13:59:01;;;;;;;3.73;2.97;;;30.70;41.20;;;;;;5013474;28;20825;-66
2022/08/11 14:01:31;;;;;;;4.10;2.77;;;30.80;40.90;;;;;;5012985;28;20470;-66
2022/08/11 14:04:08;;;;;;;6.50;2.40;;;30.70;39.40;;;;;;5013214;28;20855;-66
2022/08/11 14:06:37;;;;;;;4.30;2.07;;;30.70;40.30;;;;;;5013314;28;20434;-66
2022/08/11 14:09:09;;;;;;;4.33;2.57;;;30.70;39.60;;;;;;5013183;28;20459;-66
2022/08/11 14:14:31;;;;;;;5.00;2.63;;;30.60;39.80;;;;;;5013433;28;20486;-66
2022/08/11 14:17:07;;;;;;;3.53;2.60;;;30.60;39.90;;;;;;5013557;28;20430;-66
2022/08/11 14:19:37;;;;;;;4.07;2.50;;;30.50;38.80;;;;;;5013115;28;20501;-66
2022/08/11 14:22:07;;;;;;;4.40;3.30;;;30.50;39.40;;;;;;5013241;28;20484;-66
2022/08/11 14:24:38;;;;;;;6.00;2.57;;;30.40;39.80;;;;;;5013331;28;20824;-66
2022/08/11 14:27:07;;;;;;;4.60;2.80;;;30.30;39.70;;;;;;5013154;28;20526;-66
2022/08/11 14:29:37;;;;;;;3.37;2.87;;;30.30;39.80;;;;;;5013073;28;20435;-67
2022/08/11 14:32:08;;;;;;;3.43;2.53;;;30.20;40.40;;;;;;5012985;28;20439;-66
2022/08/11 14:34:36;;;;;;;4.23;2.80;;;30.10;39.70;;;;;;5016023;28;20434;-66
2022/08/11 14:37:07;;;;;;;4.27;2.40;;;30.00;41.10;;;;;;5016809;28;20594;-66
2022/08/11 14:39:40;;;;;;;3.73;2.63;;;29.90;41.00;;;;;;5016743;28;20577;-66
2022/08/11 14:47:47;;;;;;;3.30;2.80;;;29.80;40.90;;;;;;5016841;28;20756;-67
2022/08/11 14:50:17;;;;;;;5.47;2.77;;;29.70;40.80;;;;;;5017115;28;20448;-66
2022/08/11 14:52:50;;;;;;;4.70;2.90;;;29.60;40.50;;;;;;5017002;28;20427;-66
2022/08/11 14:58:06;;;;;;;3.47;2.60;;;29.50;41.10;;;;;;5014632;28;20485;-67
2022/08/11 15:00:34;;;;;;;3.93;2.80;;;29.30;40.30;;;;;;5016575;28;20875;-66
2022/08/11 15:03:11;;;;;;;3.23;2.80;;;29.20;40.60;;;;;;5016240;28;20437;-67
2022/08/11 15:05:47;;;;;;;3.63;2.87;;;29.10;40.80;;;;;;5016750;28;20437;-66
2022/08/11 15:08:16;;;;;;;8.57;3.57;;;29.10;40.70;;;;;;5016769;28;20452;-66
2022/08/11 15:10:45;;;;;;;3.60;2.70;;;29.00;40.40;;;;;;5016619;28;20435;-66
2022/08/11 15:13:17;;;;;;;5.10;2.63;;;29.00;40.90;;;;;;5014703;28;20534;-67
2022/08/11 15:18:30;;;;;;;6.30;3.10;;;28.90;41.10;;;;;;5015583;28;20546;-66
2022/08/11 15:37:44;;;;;;;3.47;2.47;;;28.20;40.70;;;;;;5016196;28;20461;-66
2022/08/11 15:46:01;;;;;;;3.83;2.50;;;27.90;42.50;;;;;;5014752;28;20418;-66
2022/08/11 15:48:35;;;;;;;3.20;2.60;;;27.80;41.90;;;;;;5016121;28;20431;-66
2022/08/11 15:51:09;;;;;;;3.80;2.77;;;27.70;42.10;;;;;;5015636;28;20440;-66
2022/08/11 15:53:41;;;;;;;6.93;2.70;;;27.70;42.70;;;;;;5015402;28;20762;-66
2022/08/11 15:56:10;;;;;;;3.63;2.67;;;27.70;43.00;;;;;;5015917;28;20439;-65
2022/08/11 16:04:17;;;;;;;6.00;2.60;;;28.00;43.50;;;;;;5015710;28;20418;-66
2022/08/11 16:06:57;;;;;;;4.70;2.50;;;28.10;43.10;;;;;;5015539;28;20459;-66
2022/08/11 16:09:31;;;;;;;4.10;2.53;;;28.20;43.00;;;;;;5015224;28;20473;-66
2022/08/11 16:12:02;;;;;;;4.30;2.30;;;28.20;42.50;;;;;;5015494;28;20447;-66
2022/08/11 16:17:21;;;;;;;4.13;2.40;;;28.40;42.50;;;;;;5015413;28;20422;-66
2022/08/11 16:19:51;;;;;;;5.37;2.07;;;28.40;42.60;;;;;;5015049;28;20569;-66
2022/08/11 16:22:33;;;;;;;3.97;2.37;;;28.40;41.00;;;;;;5015246;28;20461;-66
2022/08/11 16:25:02;;;;;;;3.30;2.20;;;28.40;40.00;;;;;;5015248;28;20442;-65
2022/08/11 16:27:32;;;;;;;8.33;2.00;;;28.40;40.10;;;;;;5014968;28;20477;-66
2022/08/11 16:30:01;;;;;;;4.47;2.60;;;28.30;39.90;;;;;;5014999;28;20455;-66
2022/08/11 16:32:30;;;;;;;5.43;2.57;;;28.20;39.20;;;;;;5014677;28;20430;-66
2022/08/11 16:40:30;;;;;;;4.70;2.40;;;28.00;40.00;;;;;;5014927;28;20481;-66
2022/08/11 16:48:35;;;;;;;4.73;2.53;;;27.70;40.40;;;;;;5014503;28;20418;-66
2022/08/11 16:51:02;;;;;;;3.10;2.23;;;27.50;39.70;;;;;;5014607;28;20522;-66
2022/08/11 16:53:30;;;;;;;5.90;1.93;;;27.40;40.20;;;;;;5014345;28;20534;-66
2022/08/11 16:56:01;;;;;;;2.73;1.93;;;27.10;39.40;;;;;;5014068;28;20865;-66
2022/08/11 17:01:20;;;;;;;3.50;2.23;;;26.90;40.30;;;;;;5014608;28;20481;-66
2022/08/11 17:18:38;;;;;;;4.47;2.13;;;25.80;41.80;;;;;;4995935;28;20877;-66
2022/08/11 17:21:04;;;;;;;4.27;2.50;;;25.70;41.70;;;;;;5013550;28;20485;-66
2022/08/11 17:23:48;;;;;;;3.77;1.97;;;25.60;42.00;;;;;;5014292;28;20522;-66
2022/08/11 17:29:13;;;;;;;5.70;2.43;;;25.40;42.30;;;;;;5013229;28;20423;-66
2022/08/11 17:37:13;;;;;;;6.17;2.30;;;25.10;42.70;;;;;;5013699;28;20426;-66
2022/08/11 17:39:41;;;;;;;5.50;2.13;;;25.10;43.20;;;;;;5013735;28;20533;-66
2022/08/11 17:50:28;;;;;;;4.53;2.13;;;24.70;42.90;;;;;;5013301;28;20936;-66
2022/08/11 18:01:14;;;;;;;3.70;2.10;;;24.40;43.00;;;;;;5012474;28;20552;-68
2022/08/11 18:03:42;;;;;;;5.07;2.03;;;24.40;43.10;;;;;;5012759;28;20841;-66
2022/08/11 18:06:13;;;;;;;3.50;1.83;;;24.30;43.30;;;;;;5013272;28;20478;-67
